createdAt,value
2023-04-18T00:00:56.254Z,12.20
2023-04-18T00:03:24.133Z,12.03
2023-04-18T00:05:52.092Z,12.37
2023-04-18T00:08:19.237Z,12.40
2023-04-18T00:10:46.798Z,11.83
2023-04-18T00:13:14.101Z,12.40
2023-04-18T00:15:43.918Z,12.93
2023-04-18T00:18:11.320Z,12.10
2023-04-18T00:20:39.278Z,12.27
2023-04-18T00:23:07.840Z,12.20
2023-04-18T00:25:35.155Z,11.93
2023-04-18T00:28:02.523Z,11.77
2023-04-18T00:30:29.755Z,13.60
2023-04-18T00:32:57.072Z,12.70
2023-04-18T00:35:25.087Z,13.03
2023-04-18T00:37:52.474Z,11.80
2023-04-18T00:40:19.996Z,12.57
2023-04-18T00:42:47.269Z,13.43
2023-04-18T00:45:14.546Z,13.27
2023-04-18T00:47:41.833Z,12.83
2023-04-18T00:50:09.888Z,12.93
2023-04-18T00:52:37.580Z,13.00
2023-04-18T00:55:07.184Z,12.00
2023-04-18T00:57:34.772Z,13.90
2023-04-18T01:00:02.515Z,12.57
2023-04-18T01:02:31.208Z,13.13
2023-04-18T01:04:58.833Z,12.33
2023-04-18T01:07:26.950Z,12.73
2023-04-18T01:09:54.600Z,13.73
2023-04-18T01:12:21.871Z,13.20
2023-04-18T01:14:49.118Z,13.53
2023-04-18T01:17:16.440Z,13.07
2023-04-18T01:19:44.511Z,13.43
2023-04-18T01:22:14.009Z,14.00
2023-04-18T01:24:42.159Z,13.27
2023-04-18T01:27:12.458Z,13.67
2023-04-18T01:29:39.940Z,13.33
2023-04-18T01:32:07.660Z,14.20
2023-04-18T01:34:34.857Z,14.10
2023-04-18T01:37:02.098Z,15.20
2023-04-18T01:39:29.654Z,14.37
2023-04-18T01:41:56.843Z,14.60
2023-04-18T01:44:24.261Z,14.23
2023-04-18T01:46:51.562Z,14.43
2023-04-18T01:49:18.766Z,14.27
2023-04-18T01:51:46.072Z,14.53
2023-04-18T01:54:13.587Z,14.70
2023-04-18T01:56:40.968Z,13.97
2023-04-18T01:59:08.190Z,14.37
2023-04-18T02:01:35.475Z,14.67
2023-04-18T02:04:02.788Z,13.17
2023-04-18T02:06:30.026Z,13.37
2023-04-18T02:08:57.271Z,14.37
2023-04-18T02:11:24.507Z,14.97
2023-04-18T02:13:51.748Z,15.57
2023-04-18T02:16:18.939Z,15.03
2023-04-18T02:18:46.370Z,15.20
2023-04-18T02:21:13.631Z,14.83
2023-04-18T02:23:42.284Z,15.67
2023-04-18T02:26:09.537Z,17.17
2023-04-18T02:28:39.078Z,16.97
2023-04-18T02:31:07.355Z,16.27
2023-04-18T02:33:34.614Z,18.13
2023-04-18T02:36:01.955Z,16.80
2023-04-18T02:38:29.253Z,17.83
2023-04-18T02:40:56.570Z,18.20
2023-04-18T02:43:23.838Z,17.73
2023-04-18T02:45:51.107Z,17.50
2023-04-18T02:48:18.419Z,18.13
2023-04-18T02:50:45.708Z,18.57
2023-04-18T02:53:12.918Z,19.07
2023-04-18T02:55:40.116Z,18.53
2023-04-18T02:58:07.295Z,19.27
2023-04-18T03:00:35.478Z,20.27
2023-04-18T03:03:02.857Z,20.53
2023-04-18T03:05:30.523Z,20.90
2023-04-18T03:07:57.748Z,20.53
2023-04-18T03:10:25.010Z,19.53
2023-04-18T03:12:52.387Z,20.90
2023-04-18T03:15:19.716Z,21.67
2023-04-18T03:17:47.104Z,20.80
2023-04-18T03:20:14.517Z,23.70
2023-04-18T03:22:41.870Z,21.37
2023-04-18T03:25:09.227Z,20.20
2023-04-18T03:27:36.547Z,20.20
2023-04-18T03:30:04.002Z,20.10
2023-04-18T03:32:34.048Z,20.60
2023-04-18T03:35:01.408Z,20.77
2023-04-18T03:37:28.677Z,19.63
2023-04-18T03:39:56.030Z,19.67
2023-04-18T03:42:23.189Z,20.47
2023-04-18T03:44:50.535Z,20.87
2023-04-18T03:47:17.927Z,20.37
2023-04-18T03:49:45.257Z,20.13
2023-04-18T03:52:12.676Z,21.17
2023-04-18T03:54:40.002Z,20.47
2023-04-18T03:57:07.371Z,21.07
2023-04-18T03:59:38.099Z,22.43
2023-04-18T04:02:05.460Z,20.67
2023-04-18T04:04:32.807Z,21.80
2023-04-18T04:07:01.092Z,19.50
2023-04-18T04:09:29.379Z,21.27
2023-04-18T04:11:56.692Z,20.13
2023-04-18T04:14:24.657Z,19.80
2023-04-18T04:16:52.698Z,21.03
2023-04-18T04:19:19.980Z,24.50
2023-04-18T04:21:47.247Z,22.97
2023-04-18T04:24:14.713Z,22.87
2023-04-18T04:26:43.148Z,24.20
2023-04-18T04:29:10.933Z,22.40
2023-04-18T04:31:38.253Z,30.73
2023-04-18T04:34:06.392Z,26.83
2023-04-18T04:36:33.676Z,20.03
2023-04-18T04:39:04.231Z,19.60
2023-04-18T04:41:31.713Z,20.00
2023-04-18T04:43:59.629Z,21.50
2023-04-18T04:46:30.353Z,20.43
2023-04-18T04:48:58.137Z,21.60
2023-04-18T04:51:25.978Z,22.27
2023-04-18T04:53:53.240Z,23.47
2023-04-18T04:56:20.764Z,26.53
2023-04-18T04:58:47.956Z,26.77
2023-04-18T05:01:16.936Z,27.00
2023-04-18T05:03:45.592Z,24.00
2023-04-18T05:06:14.066Z,24.47
2023-04-18T05:08:41.759Z,22.93
2023-04-18T05:11:08.962Z,21.67
2023-04-18T05:13:36.234Z,22.37
2023-04-18T05:16:03.609Z,23.10
2023-04-18T05:18:32.547Z,22.97
2023-04-18T05:21:01.680Z,22.03
2023-04-18T05:23:28.916Z,23.60
2023-04-18T05:25:56.160Z,22.23
2023-04-18T05:28:26.620Z,23.10
2023-04-18T05:31:01.092Z,21.93
2023-04-18T05:33:29.359Z,25.23
2023-04-18T05:35:57.009Z,25.80
2023-04-18T05:38:24.330Z,26.20
2023-04-18T05:40:52.066Z,38.20
2023-04-18T05:43:21.518Z,38.70
2023-04-18T05:45:51.277Z,26.70
2023-04-18T05:48:19.516Z,26.40
2023-04-18T05:50:46.886Z,25.63
2023-04-18T05:53:14.173Z,26.00
2023-04-18T05:55:41.639Z,27.23
2023-04-18T05:58:08.824Z,28.27
2023-04-18T06:00:36.467Z,27.67
2023-04-18T06:03:08.447Z,26.83
2023-04-18T06:05:37.748Z,24.73
2023-04-18T06:08:05.207Z,27.87
2023-04-18T06:10:32.406Z,27.17
2023-04-18T06:12:59.691Z,27.90
2023-04-18T06:15:27.000Z,27.47
2023-04-18T06:17:54.231Z,27.80
2023-04-18T06:20:24.768Z,28.53
2023-04-18T06:22:51.957Z,25.53
2023-04-18T06:25:19.308Z,25.97
2023-04-18T06:27:46.653Z,24.37
2023-04-18T06:30:14.541Z,26.63
2023-04-18T06:32:41.847Z,25.53
2023-04-18T06:35:09.472Z,24.03
2023-04-18T06:37:36.834Z,25.47
2023-04-18T06:40:05.315Z,26.30
2023-04-18T06:42:33.640Z,24.47
2023-04-18T06:45:00.925Z,24.60
2023-04-18T06:47:28.332Z,23.07
2023-04-18T06:49:55.574Z,24.73
2023-04-18T06:52:22.793Z,24.17
2023-04-18T06:54:50.121Z,23.73
2023-04-18T06:57:17.408Z,24.67
2023-04-18T06:59:44.724Z,24.03
2023-04-18T07:02:12.017Z,23.77
2023-04-18T07:04:39.904Z,31.93
2023-04-18T07:07:07.869Z,27.00
2023-04-18T07:09:35.232Z,26.03
2023-04-18T07:12:02.526Z,23.37
2023-04-18T07:14:32.895Z,24.87
2023-04-18T07:17:02.228Z,23.37
2023-04-18T07:19:30.313Z,24.43
2023-04-18T07:21:57.520Z,24.30
2023-04-18T07:24:24.852Z,28.33
2023-04-18T07:26:54.794Z,27.40
2023-04-18T07:29:22.524Z,24.80
2023-04-18T07:31:50.113Z,24.23
2023-04-18T07:34:17.938Z,23.30
2023-04-18T07:36:45.515Z,24.87
2023-04-18T07:39:13.652Z,24.53
2023-04-18T07:41:40.943Z,26.30
2023-04-18T07:44:08.158Z,25.20
2023-04-18T07:46:35.543Z,26.03
2023-04-18T07:49:03.562Z,26.60
2023-04-18T07:51:35.080Z,27.13
2023-04-18T07:54:02.341Z,28.00
2023-04-18T07:56:30.042Z,27.97
2023-04-18T07:58:57.277Z,30.53
2023-04-18T08:01:27.182Z,28.37
2023-04-18T08:03:56.588Z,28.90
2023-04-18T08:06:23.978Z,28.43
2023-04-18T08:08:51.215Z,26.60
2023-04-18T08:11:18.534Z,27.77
2023-04-18T08:13:45.728Z,26.23
2023-04-18T08:16:14.843Z,27.77
2023-04-18T08:18:44.170Z,26.50
2023-04-18T08:21:11.397Z,27.00
2023-04-18T08:23:38.604Z,25.47
2023-04-18T08:26:05.908Z,26.30
2023-04-18T08:28:33.208Z,26.17
2023-04-18T08:31:00.614Z,27.00
2023-04-18T08:33:28.385Z,25.40
2023-04-18T08:35:55.593Z,26.87
2023-04-18T08:38:22.842Z,24.77
2023-04-18T08:40:50.051Z,24.93
2023-04-18T08:43:17.440Z,25.20
2023-04-18T08:45:45.985Z,24.40
2023-04-18T08:48:16.773Z,23.87
2023-04-18T08:50:44.601Z,24.03
2023-04-18T08:53:12.139Z,23.63
2023-04-18T08:55:40.539Z,21.80
2023-04-18T08:58:08.008Z,20.03
2023-04-18T09:00:35.336Z,22.37
2023-04-18T09:03:03.815Z,20.90
2023-04-18T09:05:31.290Z,20.23
2023-04-18T09:07:58.545Z,21.67
2023-04-18T09:10:28.666Z,19.87
2023-04-18T09:12:56.978Z,20.77
2023-04-18T09:15:27.111Z,19.90
2023-04-18T09:17:56.485Z,20.00
2023-04-18T09:20:36.026Z,20.47
2023-04-18T09:23:04.500Z,19.70
2023-04-18T09:25:39.818Z,20.23
2023-04-18T09:28:28.082Z,19.67
2023-04-18T09:30:56.233Z,19.73
2023-04-18T09:33:33.078Z,20.70
2023-04-18T09:36:18.827Z,18.87
2023-04-18T09:38:46.359Z,17.87
2023-04-18T09:41:15.772Z,16.30
2023-04-18T09:43:43.431Z,16.53
2023-04-18T09:46:10.967Z,17.60
2023-04-18T09:48:38.271Z,17.63
2023-04-18T09:51:10.039Z,17.77
2023-04-18T09:53:40.942Z,18.07
2023-04-18T09:56:28.888Z,17.90
2023-04-18T09:58:57.171Z,21.93
2023-04-18T10:01:28.475Z,18.90
2023-04-18T10:03:56.662Z,20.17
2023-04-18T10:06:24.141Z,18.20
2023-04-18T10:08:52.863Z,17.53
2023-04-18T10:11:20.346Z,17.17
2023-04-18T10:13:52.745Z,17.50
2023-04-18T10:16:20.600Z,16.43
2023-04-18T10:18:49.998Z,15.83
2023-04-18T10:21:17.251Z,16.47
2023-04-18T10:23:45.990Z,15.90
2023-04-18T10:26:13.220Z,16.30
2023-04-18T10:28:56.725Z,15.57
2023-04-18T10:31:27.892Z,15.47
2023-04-18T10:34:04.789Z,15.13
2023-04-18T10:36:33.507Z,14.80
2023-04-18T10:39:03.980Z,15.33
2023-04-18T10:41:34.744Z,15.73
2023-04-18T10:44:08.838Z,15.27
2023-04-18T10:46:40.744Z,15.93
2023-04-18T10:49:15.283Z,14.10
2023-04-18T10:51:44.443Z,15.63
2023-04-18T10:54:13.469Z,14.77
2023-04-18T10:56:41.588Z,15.67
2023-04-18T10:59:10.383Z,14.30
2023-04-18T11:01:39.122Z,13.47
2023-04-18T11:04:13.521Z,15.13
2023-04-18T11:06:48.881Z,14.63
2023-04-18T11:09:16.404Z,13.80
2023-04-18T11:11:44.362Z,13.87
2023-04-18T11:14:11.938Z,13.73
2023-04-18T11:16:39.422Z,12.33
2023-04-18T11:19:23.779Z,13.43
2023-04-18T11:21:51.866Z,12.23
2023-04-18T11:24:23.472Z,11.97
2023-04-18T11:26:55.688Z,12.10
2023-04-18T11:29:23.053Z,11.50
2023-04-18T11:31:56.015Z,12.63
2023-04-18T11:34:30.314Z,11.20
2023-04-18T11:36:57.744Z,11.53
2023-04-18T11:39:25.301Z,11.63
2023-04-18T11:41:52.501Z,12.20
2023-04-18T11:44:25.947Z,11.40
2023-04-18T11:46:55.901Z,10.73
2023-04-18T11:49:27.751Z,11.10
2023-04-18T11:51:54.990Z,10.87
2023-04-18T11:54:41.546Z,10.67
2023-04-18T11:57:19.981Z,9.63
2023-04-18T11:59:54.499Z,9.67
2023-04-18T12:02:23.232Z,9.93
2023-04-18T12:04:52.296Z,9.70
2023-04-18T12:07:36.381Z,9.07
2023-04-18T12:10:05.029Z,9.33
2023-04-18T12:12:32.293Z,9.30
2023-04-18T12:15:03.531Z,8.73
2023-04-18T12:17:31.305Z,9.10
2023-04-18T12:20:02.158Z,9.43
2023-04-18T12:22:42.839Z,9.40
2023-04-18T12:25:11.012Z,8.57
2023-04-18T12:27:48.241Z,8.77
2023-04-18T12:30:15.965Z,9.13
2023-04-18T12:32:45.002Z,9.40
2023-04-18T12:35:12.374Z,8.95
2023-04-18T12:37:39.603Z,8.77
2023-04-18T12:40:07.810Z,8.52
2023-04-18T12:42:34.979Z,8.75
2023-04-18T12:45:03.484Z,9.00
2023-04-18T12:47:31.252Z,9.18
2023-04-18T12:49:58.733Z,9.40
2023-04-18T12:52:26.321Z,8.80
2023-04-18T12:54:56.455Z,8.85
2023-04-18T12:57:24.027Z,8.50
2023-04-18T12:59:51.766Z,7.35
2023-04-18T13:02:19.140Z,8.13
2023-04-18T13:04:46.758Z,7.70
2023-04-18T13:07:14.066Z,7.35
2023-04-18T13:09:41.372Z,7.57
2023-04-18T13:12:08.737Z,7.90
2023-04-18T13:14:36.238Z,7.65
2023-04-18T13:17:04.319Z,7.68
2023-04-18T13:19:32.432Z,7.80
2023-04-18T13:22:00.030Z,7.93
2023-04-18T13:24:27.676Z,7.78
2023-04-18T13:26:55.132Z,6.68
2023-04-18T13:29:22.389Z,7.13
2023-04-18T13:31:49.613Z,7.20
2023-04-18T13:34:17.144Z,6.07
2023-04-18T13:36:44.365Z,6.05
2023-04-18T13:39:12.347Z,5.97
2023-04-18T13:41:39.701Z,7.13
2023-04-18T13:44:08.274Z,5.90
2023-04-18T13:46:36.630Z,5.65
2023-04-18T13:49:03.846Z,6.10
2023-04-18T13:51:31.778Z,6.50
2023-04-18T13:54:01.184Z,6.40
2023-04-18T13:56:28.575Z,6.47
2023-04-18T13:58:56.404Z,6.28
2023-04-18T14:01:23.734Z,5.85
2023-04-18T14:03:51.322Z,6.50
2023-04-18T14:06:18.558Z,5.80
2023-04-18T14:08:45.831Z,6.10
2023-04-18T14:11:13.070Z,6.82
2023-04-18T14:13:40.268Z,5.88
2023-04-18T14:16:07.855Z,6.53
2023-04-18T14:18:35.766Z,5.80
2023-04-18T14:21:03.039Z,6.30
2023-04-18T14:23:30.258Z,6.13
2023-04-18T14:25:57.503Z,6.32
2023-04-18T14:28:25.465Z,6.43
2023-04-18T14:30:52.806Z,6.35
2023-04-18T14:33:20.056Z,6.53
2023-04-18T14:35:47.250Z,6.70
2023-04-18T14:38:14.522Z,6.67
2023-04-18T14:40:41.889Z,6.53
2023-04-18T14:43:09.184Z,6.33
2023-04-18T14:45:36.380Z,5.60
2023-04-18T14:48:03.631Z,5.57
2023-04-18T14:50:31.712Z,6.47
2023-04-18T14:52:58.944Z,5.57
2023-04-18T14:55:26.168Z,6.27
2023-04-18T14:57:54.795Z,6.83
2023-04-18T15:00:22.191Z,6.67
2023-04-18T15:02:49.657Z,6.93
2023-04-18T15:05:18.591Z,5.90
2023-04-18T15:07:46.986Z,6.67
2023-04-18T15:10:15.224Z,6.80
2023-04-18T15:12:42.749Z,7.30
2023-04-18T15:15:10.161Z,7.07
2023-04-18T15:17:37.695Z,6.93
2023-04-18T15:20:08.056Z,6.97
2023-04-18T15:22:35.652Z,7.23
2023-04-18T15:25:04.068Z,7.20
2023-04-18T15:27:31.495Z,7.73
2023-04-18T15:29:58.818Z,6.70
2023-04-18T15:32:26.112Z,7.13
2023-04-18T15:34:53.369Z,6.83
2023-04-18T15:37:21.554Z,8.10
2023-04-18T15:39:48.763Z,6.93
2023-04-18T15:42:15.964Z,6.25
2023-04-18T15:44:43.275Z,6.55
2023-04-18T15:47:10.682Z,6.78
2023-04-18T15:49:37.839Z,7.95
2023-04-18T15:52:06.923Z,8.77
2023-04-18T15:54:34.611Z,8.87
2023-04-18T15:57:02.582Z,7.93
2023-04-18T15:59:30.769Z,6.03
2023-04-18T16:01:58.103Z,5.60
2023-04-18T16:04:25.641Z,5.53
2023-04-18T16:06:52.988Z,6.53
2023-04-18T16:09:20.230Z,6.18
2023-04-18T16:11:47.619Z,5.72
2023-04-18T16:14:15.167Z,5.57
2023-04-18T16:16:44.637Z,5.70
2023-04-18T16:19:12.386Z,5.75
2023-04-18T16:21:39.599Z,6.03
2023-04-18T16:24:07.181Z,5.63
2023-04-18T16:26:34.425Z,5.88
2023-04-18T16:29:01.655Z,5.35
2023-04-18T16:31:28.921Z,5.30
2023-04-18T16:33:56.478Z,5.20
2023-04-18T16:36:23.718Z,5.50
2023-04-18T16:38:51.284Z,8.00
2023-04-18T16:41:18.520Z,5.93
2023-04-18T16:43:45.850Z,5.87
2023-04-18T16:46:13.901Z,6.00
2023-04-18T16:48:41.767Z,6.00
2023-04-18T16:51:08.962Z,5.97
2023-04-18T16:53:36.195Z,5.90
2023-04-18T16:56:03.450Z,6.37
2023-04-18T16:58:31.066Z,6.40
2023-04-18T17:00:59.303Z,6.17
2023-04-18T17:03:26.940Z,6.07
2023-04-18T17:05:54.320Z,6.07
2023-04-18T17:08:21.571Z,6.40
2023-04-18T17:10:52.227Z,5.60
2023-04-18T17:13:19.427Z,6.30
2023-04-18T17:15:46.886Z,6.20
2023-04-18T17:18:14.210Z,6.00
2023-04-18T17:20:41.440Z,6.43
2023-04-18T17:23:10.186Z,6.47
2023-04-18T17:25:37.460Z,7.20
2023-04-18T17:28:07.047Z,7.13
2023-04-18T17:30:34.340Z,8.17
2023-04-18T17:33:01.837Z,8.33
2023-04-18T17:35:29.249Z,7.40
2023-04-18T17:37:56.848Z,6.63
2023-04-18T17:40:24.193Z,5.87
2023-04-18T17:42:51.509Z,5.73
2023-04-18T17:45:20.534Z,5.50
2023-04-18T17:47:49.523Z,4.90
2023-04-18T17:50:16.933Z,5.20
2023-04-18T17:52:45.278Z,6.00
2023-04-18T17:55:12.943Z,6.13
2023-04-18T17:57:40.197Z,5.30
2023-04-18T18:00:10.632Z,5.63
2023-04-18T18:02:38.681Z,5.67
2023-04-18T18:05:06.385Z,6.17
2023-04-18T18:07:37.244Z,5.43
2023-04-18T18:10:05.475Z,6.13
2023-04-18T18:12:35.197Z,7.70
2023-04-18T18:15:02.484Z,7.63
2023-04-18T18:17:29.781Z,6.70
2023-04-18T18:19:56.962Z,6.90
2023-04-18T18:22:26.067Z,6.63
2023-04-18T18:24:53.321Z,7.00
2023-04-18T18:27:20.696Z,8.43
2023-04-18T18:29:51.134Z,8.60
2023-04-18T18:32:18.687Z,8.20
2023-04-18T18:34:45.945Z,7.93
2023-04-18T18:37:13.301Z,8.07
2023-04-18T18:39:40.576Z,10.43
2023-04-18T18:42:07.817Z,10.13
2023-04-18T18:44:35.004Z,8.53
2023-04-18T18:47:02.280Z,10.83
2023-04-18T18:49:29.525Z,12.80
2023-04-18T18:51:57.100Z,11.53
2023-04-18T18:54:25.770Z,10.73
2023-04-18T18:56:53.006Z,11.37
2023-04-18T18:59:20.222Z,10.60
2023-04-18T19:01:47.472Z,13.70
2023-04-18T19:04:14.892Z,10.83
2023-04-18T19:06:42.291Z,19.53
2023-04-18T19:09:09.542Z,18.70
2023-04-18T19:11:36.937Z,14.77
2023-04-18T19:14:04.381Z,12.70
2023-04-18T19:16:32.620Z,13.93
2023-04-18T19:18:59.974Z,14.80
2023-04-18T19:21:27.223Z,12.50
2023-04-18T19:23:54.449Z,14.63
2023-04-18T19:26:21.815Z,12.53
2023-04-18T19:28:49.031Z,13.43
2023-04-18T19:31:16.449Z,15.87
2023-04-18T19:33:43.658Z,14.70
2023-04-18T19:36:11.079Z,16.20
2023-04-18T19:38:38.341Z,14.50
2023-04-18T19:41:05.520Z,14.90
2023-04-18T19:43:32.847Z,14.00
2023-04-18T19:46:00.130Z,15.30
2023-04-18T19:48:27.352Z,14.30
2023-04-18T19:50:54.626Z,14.00
2023-04-18T19:53:23.471Z,15.97
2023-04-18T19:55:50.776Z,16.30
2023-04-18T19:58:34.682Z,14.30
2023-04-18T20:01:02.221Z,16.00
2023-04-18T20:03:29.627Z,15.77
2023-04-18T20:05:57.016Z,14.67
2023-04-18T20:08:24.170Z,14.30
2023-04-18T20:10:51.385Z,14.23
2023-04-18T20:13:18.637Z,14.17
2023-04-18T20:15:45.816Z,13.93
2023-04-18T20:18:13.059Z,13.90
2023-04-18T20:20:40.543Z,13.53
2023-04-18T20:23:07.906Z,13.90
2023-04-18T20:25:35.285Z,13.77
2023-04-18T20:28:03.268Z,15.00
2023-04-18T20:30:30.490Z,14.50
2023-04-18T20:32:57.722Z,14.73
2023-04-18T20:35:25.092Z,14.50
2023-04-18T20:37:52.304Z,14.27
2023-04-18T20:40:20.636Z,14.17
2023-04-18T20:42:47.876Z,14.33
2023-04-18T20:45:15.080Z,14.13
2023-04-18T20:47:42.508Z,13.30
2023-04-18T20:50:10.559Z,14.73
2023-04-18T20:52:37.792Z,13.43
2023-04-18T20:55:05.555Z,15.27
2023-04-18T20:57:32.796Z,15.00
2023-04-18T21:00:00.097Z,14.13
2023-04-18T21:02:27.395Z,14.33
2023-04-18T21:04:54.806Z,15.30
2023-04-18T21:07:22.042Z,13.57
2023-04-18T21:09:49.242Z,14.70
2023-04-18T21:12:16.511Z,13.87
2023-04-18T21:14:43.701Z,15.13
2023-04-18T21:17:10.990Z,14.60
2023-04-18T21:19:38.198Z,14.53
2023-04-18T21:22:05.378Z,14.63
2023-04-18T21:24:32.587Z,13.70
2023-04-18T21:26:59.849Z,14.40
2023-04-18T21:29:27.121Z,14.60
2023-04-18T21:31:54.473Z,15.20
2023-04-18T21:34:21.723Z,14.27
2023-04-18T21:36:48.943Z,14.40
2023-04-18T21:39:16.257Z,14.87
2023-04-18T21:41:43.517Z,14.60
2023-04-18T21:44:11.027Z,14.73
2023-04-18T21:46:38.237Z,14.33
2023-04-18T21:49:05.500Z,14.77
2023-04-18T21:51:32.899Z,14.50
2023-04-18T21:54:00.140Z,14.73
2023-04-18T21:56:27.378Z,14.40
2023-04-18T21:58:54.643Z,14.83
2023-04-18T22:01:22.068Z,15.00
2023-04-18T22:03:49.554Z,14.97
2023-04-18T22:06:17.016Z,14.27
2023-04-18T22:08:44.248Z,14.90
2023-04-18T22:11:11.642Z,15.33
2023-04-18T22:13:38.911Z,15.07
2023-04-18T22:16:08.504Z,15.03
2023-04-18T22:18:37.634Z,14.37
2023-04-18T22:21:05.321Z,14.57
2023-04-18T22:23:32.574Z,14.07
2023-04-18T22:25:59.838Z,14.50
2023-04-18T22:28:30.150Z,13.60
2023-04-18T22:30:57.682Z,14.60
2023-04-18T22:33:25.399Z,14.57
2023-04-18T22:35:53.290Z,14.40
2023-04-18T22:38:20.452Z,14.80
2023-04-18T22:40:47.747Z,15.70
2023-04-18T22:43:14.986Z,14.33
2023-04-18T22:45:42.194Z,14.47
2023-04-18T22:48:12.219Z,14.93
2023-04-18T22:50:42.956Z,14.57
2023-04-18T22:53:11.145Z,15.00
2023-04-18T22:55:39.357Z,14.60
2023-04-18T22:58:06.887Z,15.60
2023-04-18T23:00:34.150Z,15.90
2023-04-18T23:03:01.513Z,14.23
2023-04-18T23:05:29.505Z,15.47
2023-04-18T23:07:59.628Z,15.13
2023-04-18T23:10:27.574Z,14.73
2023-04-18T23:12:54.773Z,14.80
2023-04-18T23:15:22.960Z,15.50
2023-04-18T23:17:59.512Z,15.20
2023-04-18T23:20:26.894Z,15.37
2023-04-18T23:22:55.465Z,16.13
2023-04-18T23:25:22.681Z,16.60
2023-04-18T23:27:49.968Z,15.23
2023-04-18T23:30:17.328Z,17.13
2023-04-18T23:32:44.507Z,16.00
2023-04-18T23:35:11.916Z,16.90
2023-04-18T23:37:39.165Z,17.37
2023-04-18T23:40:07.132Z,17.70
2023-04-18T23:42:34.993Z,17.83
2023-04-18T23:45:03.940Z,17.47
2023-04-18T23:47:31.296Z,18.50
2023-04-18T23:49:58.603Z,17.80
2023-04-18T23:52:25.917Z,17.60
2023-04-18T23:54:53.227Z,17.77
2023-04-18T23:57:20.583Z,18.07
2023-04-18T23:59:47.812Z,17.13
